sensor_id;sensor_type;location;lat;lon;timestamp;temperature;humidity
55036;DHT22;40936;53.008;6.556;2023-02-12T00:00:30;8.90;1.00
55036;DHT22;40936;53.008;6.556;2023-02-12T00:02:56;8.20;1.00
55036;DHT22;40936;53.008;6.556;2023-02-12T00:05:22;7.60;1.00
55036;DHT22;40936;53.008;6.556;2023-02-12T00:07:47;8.50;1.00
55036;DHT22;40936;53.008;6.556;2023-02-12T00:10:13;9.10;1.00
55036;DHT22;40936;53.008;6.556;2023-02-12T00:12:39;10.60;1.00
55036;DHT22;40936;53.008;6.556;2023-02-12T00:15:05;8.50;1.00
55036;DHT22;40936;53.008;6.556;2023-02-12T00:17:31;8.60;1.00
55036;DHT22;40936;53.008;6.556;2023-02-12T00:19:56;9.20;1.00
55036;DHT22;40936;53.008;6.556;2023-02-12T00:22:22;9.00;1.00
55036;DHT22;40936;53.008;6.556;2023-02-12T00:27:14;8.50;1.00
55036;DHT22;40936;53.008;6.556;2023-02-12T00:29:40;7.80;1.00
55036;DHT22;40936;53.008;6.556;2023-02-12T00:34:32;8.50;1.00
55036;DHT22;40936;53.008;6.556;2023-02-12T00:36:57;8.00;1.00
55036;DHT22;40936;53.008;6.556;2023-02-12T00:39:23;8.50;1.00
55036;DHT22;40936;53.008;6.556;2023-02-12T00:41:49;9.00;1.00
55036;DHT22;40936;53.008;6.556;2023-02-12T00:49:07;10.90;1.00
55036;DHT22;40936;53.008;6.556;2023-02-12T00:56:25;8.50;1.00
55036;DHT22;40936;53.008;6.556;2023-02-12T00:58:50;7.30;1.00
55036;DHT22;40936;53.008;6.556;2023-02-12T01:01:17;8.50;1.00
55036;DHT22;40936;53.008;6.556;2023-02-12T01:06:09;8.70;1.00
55036;DHT22;40936;53.008;6.556;2023-02-12T01:11:03;8.40;1.00
55036;DHT22;40936;53.008;6.556;2023-02-12T01:13:30;8.40;1.00
55036;DHT22;40936;53.008;6.556;2023-02-12T01:21:15;8.30;1.00
55036;DHT22;40936;53.008;6.556;2023-02-12T01:23:41;8.30;1.00
55036;DHT22;40936;53.008;6.556;2023-02-12T01:26:07;7.90;1.00
55036;DHT22;40936;53.008;6.556;2023-02-12T01:28:36;8.20;1.00
55036;DHT22;40936;53.008;6.556;2023-02-12T01:31:06;8.20;1.00
55036;DHT22;40936;53.008;6.556;2023-02-12T01:33:32;7.90;1.00
55036;DHT22;40936;53.008;6.556;2023-02-12T01:36:00;8.60;1.00
55036;DHT22;40936;53.008;6.556;2023-02-12T01:38:26;8.10;1.00
55036;DHT22;40936;53.008;6.556;2023-02-12T01:40:52;8.30;1.00
55036;DHT22;40936;53.008;6.556;2023-02-12T01:43:17;8.90;1.00
55036;DHT22;40936;53.008;6.556;2023-02-12T01:45:46;8.20;1.00
55036;DHT22;40936;53.008;6.556;2023-02-12T01:48:13;8.60;1.00
55036;DHT22;40936;53.008;6.556;2023-02-12T01:50:42;8.20;1.00
55036;DHT22;40936;53.008;6.556;2023-02-12T01:53:08;8.20;1.00
55036;DHT22;40936;53.008;6.556;2023-02-12T01:55:34;8.40;1.00
55036;DHT22;40936;53.008;6.556;2023-02-12T01:58:00;8.80;11.70
55036;DHT22;40936;53.008;6.556;2023-02-12T02:02:55;8.20;1.00
55036;DHT22;40936;53.008;6.556;2023-02-12T02:08:11;8.20;1.00
55036;DHT22;40936;53.008;6.556;2023-02-12T02:15:51;8.20;1.00
55036;DHT22;40936;53.008;6.556;2023-02-12T02:18:31;8.70;1.00
55036;DHT22;40936;53.008;6.556;2023-02-12T02:34:16;8.20;99.90
55036;DHT22;40936;53.008;6.556;2023-02-12T02:37:33;8.20;99.90
55036;DHT22;40936;53.008;6.556;2023-02-12T02:39:49;8.10;99.90
55036;DHT22;40936;53.008;6.556;2023-02-12T02:42:24;8.20;99.90
55036;DHT22;40936;53.008;6.556;2023-02-12T02:44:54;8.40;99.90
55036;DHT22;40936;53.008;6.556;2023-02-12T02:47:36;8.20;99.90
55036;DHT22;40936;53.008;6.556;2023-02-12T02:50:09;8.20;99.90
55036;DHT22;40936;53.008;6.556;2023-02-12T02:53:27;8.20;99.90
55036;DHT22;40936;53.008;6.556;2023-02-12T02:55:31;8.20;99.90
55036;DHT22;40936;53.008;6.556;2023-02-12T02:58:13;8.10;99.90
55036;DHT22;40936;53.008;6.556;2023-02-12T03:00:44;8.10;99.90
55036;DHT22;40936;53.008;6.556;2023-02-12T03:03:23;8.50;99.90
55036;DHT22;40936;53.008;6.556;2023-02-12T03:05:54;8.50;99.90
55036;DHT22;40936;53.008;6.556;2023-02-12T03:08:40;8.20;99.90
55036;DHT22;40936;53.008;6.556;2023-02-12T03:11:13;8.20;99.90
55036;DHT22;40936;53.008;6.556;2023-02-12T03:13:46;8.20;99.90
55036;DHT22;40936;53.008;6.556;2023-02-12T03:16:19;8.10;99.90
55036;DHT22;40936;53.008;6.556;2023-02-12T03:19:11;8.20;99.90
55036;DHT22;40936;53.008;6.556;2023-02-12T03:21:47;6.20;99.90
55036;DHT22;40936;53.008;6.556;2023-02-12T03:24:40;7.90;99.90
55036;DHT22;40936;53.008;6.556;2023-02-12T03:27:20;8.10;99.90
55036;DHT22;40936;53.008;6.556;2023-02-12T03:29:47;8.20;99.90
55036;DHT22;40936;53.008;6.556;2023-02-12T03:40:29;9.00;99.90
55036;DHT22;40936;53.008;6.556;2023-02-12T03:43:03;8.10;99.90
55036;DHT22;40936;53.008;6.556;2023-02-12T03:51:40;8.20;99.90
55036;DHT22;40936;53.008;6.556;2023-02-12T03:54:08;8.20;99.90
55036;DHT22;40936;53.008;6.556;2023-02-12T03:59:07;8.20;99.90
55036;DHT22;40936;53.008;6.556;2023-02-12T04:01:34;8.20;99.90
55036;DHT22;40936;53.008;6.556;2023-02-12T04:04:04;8.10;99.90
55036;DHT22;40936;53.008;6.556;2023-02-12T04:06:30;8.20;99.90
55036;DHT22;40936;53.008;6.556;2023-02-12T04:09:05;8.10;99.90
55036;DHT22;40936;53.008;6.556;2023-02-12T04:17:14;9.40;99.90
55036;DHT22;40936;53.008;6.556;2023-02-12T04:25:21;8.10;99.90
55036;DHT22;40936;53.008;6.556;2023-02-12T04:30:51;8.10;99.90
55036;DHT22;40936;53.008;6.556;2023-02-12T04:33:22;8.20;99.90
55036;DHT22;40936;53.008;6.556;2023-02-12T04:36:14;8.10;99.90
55036;DHT22;40936;53.008;6.556;2023-02-12T04:38:53;8.10;99.90
55036;DHT22;40936;53.008;6.556;2023-02-12T04:41:19;8.10;99.90
55036;DHT22;40936;53.008;6.556;2023-02-12T04:48:54;8.10;99.90
55036;DHT22;40936;53.008;6.556;2023-02-12T04:51:20;7.70;99.90
55036;DHT22;40936;53.008;6.556;2023-02-12T04:53:46;8.70;99.90
55036;DHT22;40936;53.008;6.556;2023-02-12T04:56:12;8.40;99.90
55036;DHT22;40936;53.008;6.556;2023-02-12T04:58:39;8.10;99.90
55036;DHT22;40936;53.008;6.556;2023-02-12T05:01:06;8.00;99.90
55036;DHT22;40936;53.008;6.556;2023-02-12T05:03:31;8.10;99.90
55036;DHT22;40936;53.008;6.556;2023-02-12T05:06:05;8.10;1.00
55036;DHT22;40936;53.008;6.556;2023-02-12T05:08:31;9.90;1.00
55036;DHT22;40936;53.008;6.556;2023-02-12T05:11:03;9.20;1.00
55036;DHT22;40936;53.008;6.556;2023-02-12T05:15:57;8.00;1.00
55036;DHT22;40936;53.008;6.556;2023-02-12T05:18:22;8.50;1.00
55036;DHT22;40936;53.008;6.556;2023-02-12T05:20:59;8.00;1.00
55036;DHT22;40936;53.008;6.556;2023-02-12T05:23:26;7.90;1.00
55036;DHT22;40936;53.008;6.556;2023-02-12T05:25:59;8.00;1.00
55036;DHT22;40936;53.008;6.556;2023-02-12T05:28:26;8.00;1.00
55036;DHT22;40936;53.008;6.556;2023-02-12T05:30:52;8.00;1.00
55036;DHT22;40936;53.008;6.556;2023-02-12T05:33:18;8.00;1.00
55036;DHT22;40936;53.008;6.556;2023-02-12T05:35:44;7.60;1.00
55036;DHT22;40936;53.008;6.556;2023-02-12T05:38:09;8.00;1.00
55036;DHT22;40936;53.008;6.556;2023-02-12T05:40:35;8.90;22.00
55036;DHT22;40936;53.008;6.556;2023-02-12T05:43:01;9.00;1.00
55036;DHT22;40936;53.008;6.556;2023-02-12T05:45:27;6.70;60.00
55036;DHT22;40936;53.008;6.556;2023-02-12T05:47:54;8.00;30.40
55036;DHT22;40936;53.008;6.556;2023-02-12T05:50:21;7.20;45.50
55036;DHT22;40936;53.008;6.556;2023-02-12T05:52:47;8.00;6.50
55036;DHT22;40936;53.008;6.556;2023-02-12T05:55:12;8.00;45.60
55036;DHT22;40936;53.008;6.556;2023-02-12T05:57:38;8.00;77.50
55036;DHT22;40936;53.008;6.556;2023-02-12T06:00:05;7.70;57.00
55036;DHT22;40936;53.008;6.556;2023-02-12T06:02:33;7.90;20.10
55036;DHT22;40936;53.008;6.556;2023-02-12T06:04:59;8.00;6.40
55036;DHT22;40936;53.008;6.556;2023-02-12T06:07:25;6.80;41.40
55036;DHT22;40936;53.008;6.556;2023-02-12T06:09:50;8.50;64.20
55036;DHT22;40936;53.008;6.556;2023-02-12T06:12:16;8.60;15.20
55036;DHT22;40936;53.008;6.556;2023-02-12T06:14:42;8.00;44.00
55036;DHT22;40936;53.008;6.556;2023-02-12T06:19:38;8.00;22.70
55036;DHT22;40936;53.008;6.556;2023-02-12T06:22:04;7.80;15.10
55036;DHT22;40936;53.008;6.556;2023-02-12T06:24:30;9.10;14.20
55036;DHT22;40936;53.008;6.556;2023-02-12T06:26:56;8.00;1.00
55036;DHT22;40936;53.008;6.556;2023-02-12T06:31:48;8.00;1.00
55036;DHT22;40936;53.008;6.556;2023-02-12T06:34:14;8.20;1.00
55036;DHT22;40936;53.008;6.556;2023-02-12T06:36:44;8.00;1.00
55036;DHT22;40936;53.008;6.556;2023-02-12T06:39:15;7.90;1.00
55036;DHT22;40936;53.008;6.556;2023-02-12T06:41:41;8.00;1.00
55036;DHT22;40936;53.008;6.556;2023-02-12T06:44:06;8.00;1.00
55036;DHT22;40936;53.008;6.556;2023-02-12T06:46:35;8.10;1.00
55036;DHT22;40936;53.008;6.556;2023-02-12T06:49:01;8.00;1.00
55036;DHT22;40936;53.008;6.556;2023-02-12T06:51:28;8.20;1.00
55036;DHT22;40936;53.008;6.556;2023-02-12T06:53:55;8.00;1.00
55036;DHT22;40936;53.008;6.556;2023-02-12T06:56:22;9.40;1.00
55036;DHT22;40936;53.008;6.556;2023-02-12T06:58:54;8.00;1.00
55036;DHT22;40936;53.008;6.556;2023-02-12T07:01:23;8.00;1.00
55036;DHT22;40936;53.008;6.556;2023-02-12T07:04:01;8.00;1.00
55036;DHT22;40936;53.008;6.556;2023-02-12T07:06:28;9.00;1.00
55036;DHT22;40936;53.008;6.556;2023-02-12T07:08:55;7.90;1.00
55036;DHT22;40936;53.008;6.556;2023-02-12T07:11:29;8.00;1.00
55036;DHT22;40936;53.008;6.556;2023-02-12T07:13:55;8.00;1.00
55036;DHT22;40936;53.008;6.556;2023-02-12T07:16:21;9.30;1.00
55036;DHT22;40936;53.008;6.556;2023-02-12T07:18:47;7.80;1.00
55036;DHT22;40936;53.008;6.556;2023-02-12T07:21:15;8.10;1.00
55036;DHT22;40936;53.008;6.556;2023-02-12T07:23:41;8.70;1.00
55036;DHT22;40936;53.008;6.556;2023-02-12T07:26:10;8.10;1.00
55036;DHT22;40936;53.008;6.556;2023-02-12T07:28:36;7.50;1.00
55036;DHT22;40936;53.008;6.556;2023-02-12T07:31:10;7.90;1.00
55036;DHT22;40936;53.008;6.556;2023-02-12T07:33:37;8.60;1.00
55036;DHT22;40936;53.008;6.556;2023-02-12T07:36:06;7.20;1.00
55036;DHT22;40936;53.008;6.556;2023-02-12T07:43:32;7.20;1.00
55036;DHT22;40936;53.008;6.556;2023-02-12T07:46:07;8.20;99.90
55036;DHT22;40936;53.008;6.556;2023-02-12T07:48:34;10.00;99.90
55036;DHT22;40936;53.008;6.556;2023-02-12T07:51:04;8.90;99.90
55036;DHT22;40936;53.008;6.556;2023-02-12T07:53:32;8.30;99.90
55036;DHT22;40936;53.008;6.556;2023-02-12T07:56:11;8.30;99.90
55036;DHT22;40936;53.008;6.556;2023-02-12T07:58:39;9.10;99.90
55036;DHT22;40936;53.008;6.556;2023-02-12T08:01:16;8.50;99.90
55036;DHT22;40936;53.008;6.556;2023-02-12T08:03:43;7.90;99.90
55036;DHT22;40936;53.008;6.556;2023-02-12T08:06:16;8.70;99.90
55036;DHT22;40936;53.008;6.556;2023-02-12T08:11:09;11.30;99.90
55036;DHT22;40936;53.008;6.556;2023-02-12T08:13:36;8.50;99.90
55036;DHT22;40936;53.008;6.556;2023-02-12T08:16:04;8.60;99.90
55036;DHT22;40936;53.008;6.556;2023-02-12T08:18:31;8.50;99.90
55036;DHT22;40936;53.008;6.556;2023-02-12T08:21:12;8.60;99.90
55036;DHT22;40936;53.008;6.556;2023-02-12T08:23:38;8.70;99.90
55036;DHT22;40936;53.008;6.556;2023-02-12T08:26:06;8.70;99.90
55036;DHT22;40936;53.008;6.556;2023-02-12T08:28:32;8.70;99.90
55036;DHT22;40936;53.008;6.556;2023-02-12T08:31:06;8.80;99.90
55036;DHT22;40936;53.008;6.556;2023-02-12T08:33:33;10.20;99.90
55036;DHT22;40936;53.008;6.556;2023-02-12T08:36:03;8.90;99.90
55036;DHT22;40936;53.008;6.556;2023-02-12T08:38:31;8.90;99.50
55036;DHT22;40936;53.008;6.556;2023-02-12T08:41:04;9.00;54.10
55036;DHT22;40936;53.008;6.556;2023-02-12T08:43:30;9.00;24.00
55036;DHT22;40936;53.008;6.556;2023-02-12T08:46:04;9.10;19.30
55036;DHT22;40936;53.008;6.556;2023-02-12T08:48:30;9.20;5.30
55036;DHT22;40936;53.008;6.556;2023-02-12T08:51:10;10.70;1.00
55036;DHT22;40936;53.008;6.556;2023-02-12T08:53:38;9.20;1.00
55036;DHT22;40936;53.008;6.556;2023-02-12T08:56:07;9.20;1.00
55036;DHT22;40936;53.008;6.556;2023-02-12T08:58:34;9.30;1.00
55036;DHT22;40936;53.008;6.556;2023-02-12T09:01:01;9.20;1.00
55036;DHT22;40936;53.008;6.556;2023-02-12T09:03:26;9.30;1.00
55036;DHT22;40936;53.008;6.556;2023-02-12T09:08:18;9.50;1.00
55036;DHT22;40936;53.008;6.556;2023-02-12T09:10:44;9.50;1.00
55036;DHT22;40936;53.008;6.556;2023-02-12T09:13:12;9.70;1.00
55036;DHT22;40936;53.008;6.556;2023-02-12T09:15:39;9.70;1.00
55036;DHT22;40936;53.008;6.556;2023-02-12T09:18:05;9.60;99.90
55036;DHT22;40936;53.008;6.556;2023-02-12T09:20:31;9.80;99.90
55036;DHT22;40936;53.008;6.556;2023-02-12T09:22:58;9.70;99.90
55036;DHT22;40936;53.008;6.556;2023-02-12T09:25:25;9.80;99.90
55036;DHT22;40936;53.008;6.556;2023-02-12T09:27:51;10.60;99.90
55036;DHT22;40936;53.008;6.556;2023-02-12T09:30:17;9.90;99.90
55036;DHT22;40936;53.008;6.556;2023-02-12T09:32:43;10.00;99.90
55036;DHT22;40936;53.008;6.556;2023-02-12T09:35:08;10.00;99.90
55036;DHT22;40936;53.008;6.556;2023-02-12T09:37:37;10.10;99.90
55036;DHT22;40936;53.008;6.556;2023-02-12T09:40:09;10.30;99.90
55036;DHT22;40936;53.008;6.556;2023-02-12T09:45:26;10.10;99.90
55036;DHT22;40936;53.008;6.556;2023-02-12T09:50:44;10.00;99.90
55036;DHT22;40936;53.008;6.556;2023-02-12T09:53:20;10.10;99.90
55036;DHT22;40936;53.008;6.556;2023-02-12T09:55:47;10.30;99.90
55036;DHT22;40936;53.008;6.556;2023-02-12T10:00:55;10.30;99.90
55036;DHT22;40936;53.008;6.556;2023-02-12T10:03:21;10.30;99.90
55036;DHT22;40936;53.008;6.556;2023-02-12T10:06:00;10.30;99.90
55036;DHT22;40936;53.008;6.556;2023-02-12T10:08:45;10.40;99.90
55036;DHT22;40936;53.008;6.556;2023-02-12T10:16:58;10.60;99.90
55036;DHT22;40936;53.008;6.556;2023-02-12T10:22:17;10.90;99.90
55036;DHT22;40936;53.008;6.556;2023-02-12T10:25:02;11.00;99.90
55036;DHT22;40936;53.008;6.556;2023-02-12T10:27:40;11.00;99.90
55036;DHT22;40936;53.008;6.556;2023-02-12T10:30:20;11.20;99.90
55036;DHT22;40936;53.008;6.556;2023-02-12T10:32:49;11.30;99.90
55036;DHT22;40936;53.008;6.556;2023-02-12T10:35:17;11.40;99.90
55036;DHT22;40936;53.008;6.556;2023-02-12T10:38:09;11.40;79.40
55036;DHT22;40936;53.008;6.556;2023-02-12T10:40:41;11.50;90.20
55036;DHT22;40936;53.008;6.556;2023-02-12T10:43:10;11.60;58.30
55036;DHT22;40936;53.008;6.556;2023-02-12T10:45:39;11.50;53.10
55036;DHT22;40936;53.008;6.556;2023-02-12T10:48:15;11.60;64.10
55036;DHT22;40936;53.008;6.556;2023-02-12T10:50:56;11.70;43.60
55036;DHT22;40936;53.008;6.556;2023-02-12T10:53:32;11.70;41.60
55036;DHT22;40936;53.008;6.556;2023-02-12T11:01:31;11.70;69.70
55036;DHT22;40936;53.008;6.556;2023-02-12T11:03:58;11.70;68.50
55036;DHT22;40936;53.008;6.556;2023-02-12T11:06:30;11.70;79.60
55036;DHT22;40936;53.008;6.556;2023-02-12T11:08:57;11.70;85.40
55036;DHT22;40936;53.008;6.556;2023-02-12T11:11:28;11.80;87.50
55036;DHT22;40936;53.008;6.556;2023-02-12T11:14:06;11.90;85.30
55036;DHT22;40936;53.008;6.556;2023-02-12T11:16:37;12.20;84.80
55036;DHT22;40936;53.008;6.556;2023-02-12T11:19:09;12.40;71.60
55036;DHT22;40936;53.008;6.556;2023-02-12T11:21:43;12.50;61.80
55036;DHT22;40936;53.008;6.556;2023-02-12T11:24:32;12.50;58.00
55036;DHT22;40936;53.008;6.556;2023-02-12T11:29:43;13.10;53.40
55036;DHT22;40936;53.008;6.556;2023-02-12T11:32:16;13.30;44.60
55036;DHT22;40936;53.008;6.556;2023-02-12T11:34:42;13.60;29.60
55036;DHT22;40936;53.008;6.556;2023-02-12T11:37:17;13.70;2.40
55036;DHT22;40936;53.008;6.556;2023-02-12T11:39:47;13.90;1.00
55036;DHT22;40936;53.008;6.556;2023-02-12T11:42:17;14.10;1.00
55036;DHT22;40936;53.008;6.556;2023-02-12T11:44:56;14.10;1.00
55036;DHT22;40936;53.008;6.556;2023-02-12T11:52:50;15.80;1.00
55036;DHT22;40936;53.008;6.556;2023-02-12T11:55:31;14.40;1.00
55036;DHT22;40936;53.008;6.556;2023-02-12T11:58:16;14.40;1.00
55036;DHT22;40936;53.008;6.556;2023-02-12T12:00:46;14.20;1.00
55036;DHT22;40936;53.008;6.556;2023-02-12T12:04:07;14.00;1.00
55036;DHT22;40936;53.008;6.556;2023-02-12T12:08:50;13.80;1.00
55036;DHT22;40936;53.008;6.556;2023-02-12T12:11:19;13.60;1.00
55036;DHT22;40936;53.008;6.556;2023-02-12T12:13:52;13.50;1.00
55036;DHT22;40936;53.008;6.556;2023-02-12T12:19:23;13.40;1.00
55036;DHT22;40936;53.008;6.556;2023-02-12T12:22:30;13.40;1.00
55036;DHT22;40936;53.008;6.556;2023-02-12T12:25:07;13.30;1.00
55036;DHT22;40936;53.008;6.556;2023-02-12T12:28:10;13.40;1.00
55036;DHT22;40936;53.008;6.556;2023-02-12T12:36:27;13.30;1.00
55036;DHT22;40936;53.008;6.556;2023-02-12T13:03:22;13.20;1.00
55036;DHT22;40936;53.008;6.556;2023-02-12T13:06:21;14.00;1.00
55036;DHT22;40936;53.008;6.556;2023-02-12T13:12:07;13.10;1.00
55036;DHT22;40936;53.008;6.556;2023-02-12T13:14:59;13.10;1.00
55036;DHT22;40936;53.008;6.556;2023-02-12T13:17:39;13.10;1.00
55036;DHT22;40936;53.008;6.556;2023-02-12T13:25:27;12.80;1.00
55036;DHT22;40936;53.008;6.556;2023-02-12T13:27:58;12.90;1.00
55036;DHT22;40936;53.008;6.556;2023-02-12T13:30:29;12.80;1.00
55036;DHT22;40936;53.008;6.556;2023-02-12T13:33:08;12.70;1.00
55036;DHT22;40936;53.008;6.556;2023-02-12T13:35:35;12.70;1.00
55036;DHT22;40936;53.008;6.556;2023-02-12T13:38:03;12.70;1.00
55036;DHT22;40936;53.008;6.556;2023-02-12T13:40:33;12.70;1.00
55036;DHT22;40936;53.008;6.556;2023-02-12T13:46:42;12.60;99.90
55036;DHT22;40936;53.008;6.556;2023-02-12T13:51:48;12.50;99.90
55036;DHT22;40936;53.008;6.556;2023-02-12T13:56:55;12.60;99.90
55036;DHT22;40936;53.008;6.556;2023-02-12T14:04:42;12.50;99.90
55036;DHT22;40936;53.008;6.556;2023-02-12T14:07:11;12.40;99.90
55036;DHT22;40936;53.008;6.556;2023-02-12T14:20:25;12.10;99.90
55036;DHT22;40936;53.008;6.556;2023-02-12T14:27:54;12.00;99.90
55036;DHT22;40936;53.008;6.556;2023-02-12T14:30:35;12.00;1.00
55036;DHT22;40936;53.008;6.556;2023-02-12T14:33:25;11.90;99.90
55036;DHT22;40936;53.008;6.556;2023-02-12T14:36:11;12.00;99.90
55036;DHT22;40936;53.008;6.556;2023-02-12T14:47:03;12.00;1.00
55036;DHT22;40936;53.008;6.556;2023-02-12T14:49:38;11.90;99.90
55036;DHT22;40936;53.008;6.556;2023-02-12T14:57:38;11.80;1.00
55036;DHT22;40936;53.008;6.556;2023-02-12T15:02:54;11.80;1.00
55036;DHT22;40936;53.008;6.556;2023-02-12T15:05:28;11.70;1.00
55036;DHT22;40936;53.008;6.556;2023-02-12T15:08:30;11.70;1.00
55036;DHT22;40936;53.008;6.556;2023-02-12T15:11:13;11.70;1.00
55036;DHT22;40936;53.008;6.556;2023-02-12T15:13:52;11.70;1.00
55036;DHT22;40936;53.008;6.556;2023-02-12T15:16:28;11.60;1.00
55036;DHT22;40936;53.008;6.556;2023-02-12T15:19:00;11.60;1.00
55036;DHT22;40936;53.008;6.556;2023-02-12T15:21:29;11.60;1.00
55036;DHT22;40936;53.008;6.556;2023-02-12T15:24:10;11.60;1.00
55036;DHT22;40936;53.008;6.556;2023-02-12T15:26:41;11.50;1.00
55036;DHT22;40936;53.008;6.556;2023-02-12T15:29:18;11.50;1.00
55036;DHT22;40936;53.008;6.556;2023-02-12T15:31:49;11.50;1.00
55036;DHT22;40936;53.008;6.556;2023-02-12T15:34:19;11.50;1.00
55036;DHT22;40936;53.008;6.556;2023-02-12T15:36:47;11.50;1.00
55036;DHT22;40936;53.008;6.556;2023-02-12T15:39:18;11.50;1.00
55036;DHT22;40936;53.008;6.556;2023-02-12T15:41:45;11.40;1.00
55036;DHT22;40936;53.008;6.556;2023-02-12T15:44:30;11.50;1.00
55036;DHT22;40936;53.008;6.556;2023-02-12T15:47:08;11.40;1.00
55036;DHT22;40936;53.008;6.556;2023-02-12T15:49:39;11.40;1.00
55036;DHT22;40936;53.008;6.556;2023-02-12T15:52:24;11.40;1.00
55036;DHT22;40936;53.008;6.556;2023-02-12T15:54:57;11.20;1.00
55036;DHT22;40936;53.008;6.556;2023-02-12T15:57:24;11.30;1.00
55036;DHT22;40936;53.008;6.556;2023-02-12T15:59:51;11.30;1.00
55036;DHT22;40936;53.008;6.556;2023-02-12T16:02:27;11.30;1.00
55036;DHT22;40936;53.008;6.556;2023-02-12T16:04:54;11.20;1.00
55036;DHT22;40936;53.008;6.556;2023-02-12T16:07:22;11.20;1.00
55036;DHT22;40936;53.008;6.556;2023-02-12T16:09:49;11.20;1.00
55036;DHT22;40936;53.008;6.556;2023-02-12T16:12:19;11.20;1.00
55036;DHT22;40936;53.008;6.556;2023-02-12T16:14:51;11.10;1.00
55036;DHT22;40936;53.008;6.556;2023-02-12T16:22:36;11.10;1.00
55036;DHT22;40936;53.008;6.556;2023-02-12T16:25:10;11.00;1.00
55036;DHT22;40936;53.008;6.556;2023-02-12T16:27:39;11.00;1.00
55036;DHT22;40936;53.008;6.556;2023-02-12T16:32:47;10.90;1.00
55036;DHT22;40936;53.008;6.556;2023-02-12T16:37:47;10.90;1.00
55036;DHT22;40936;53.008;6.556;2023-02-12T16:50:26;10.80;1.00
55036;DHT22;40936;53.008;6.556;2023-02-12T16:53:03;10.80;1.00
55036;DHT22;40936;53.008;6.556;2023-02-12T16:55:29;10.80;1.00
55036;DHT22;40936;53.008;6.556;2023-02-12T16:57:55;10.70;1.00
55036;DHT22;40936;53.008;6.556;2023-02-12T17:00:21;10.70;1.00
55036;DHT22;40936;53.008;6.556;2023-02-12T17:02:48;10.80;1.00
55036;DHT22;40936;53.008;6.556;2023-02-12T17:05:15;10.70;1.00
55036;DHT22;40936;53.008;6.556;2023-02-12T17:07:42;10.70;1.00
55036;DHT22;40936;53.008;6.556;2023-02-12T17:10:13;10.70;1.00
55036;DHT22;40936;53.008;6.556;2023-02-12T17:12:47;10.70;1.00
55036;DHT22;40936;53.008;6.556;2023-02-12T17:15:23;10.70;1.00
55036;DHT22;40936;53.008;6.556;2023-02-12T17:17:50;10.60;1.00
55036;DHT22;40936;53.008;6.556;2023-02-12T17:20:16;10.60;1.00
55036;DHT22;40936;53.008;6.556;2023-02-12T17:22:50;10.60;1.00
55036;DHT22;40936;53.008;6.556;2023-02-12T17:25:17;10.60;1.00
55036;DHT22;40936;53.008;6.556;2023-02-12T17:27:43;10.60;1.00
55036;DHT22;40936;53.008;6.556;2023-02-12T17:30:15;10.60;1.00
55036;DHT22;40936;53.008;6.556;2023-02-12T17:32:41;10.50;1.00
55036;DHT22;40936;53.008;6.556;2023-02-12T17:35:07;10.50;1.00
55036;DHT22;40936;53.008;6.556;2023-02-12T17:37:33;10.50;1.00
55036;DHT22;40936;53.008;6.556;2023-02-12T17:39:59;10.70;1.00
55036;DHT22;40936;53.008;6.556;2023-02-12T17:42:25;10.50;1.00
55036;DHT22;40936;53.008;6.556;2023-02-12T17:44:51;10.50;1.00
55036;DHT22;40936;53.008;6.556;2023-02-12T17:47:17;10.40;1.00
55036;DHT22;40936;53.008;6.556;2023-02-12T17:49:43;10.50;1.00
55036;DHT22;40936;53.008;6.556;2023-02-12T17:52:09;10.40;1.00
55036;DHT22;40936;53.008;6.556;2023-02-12T17:54:35;10.50;1.00
55036;DHT22;40936;53.008;6.556;2023-02-12T17:57:01;10.40;1.00
55036;DHT22;40936;53.008;6.556;2023-02-12T17:59:27;10.40;1.00
55036;DHT22;40936;53.008;6.556;2023-02-12T18:01:53;10.40;1.00
55036;DHT22;40936;53.008;6.556;2023-02-12T18:04:19;10.40;1.00
55036;DHT22;40936;53.008;6.556;2023-02-12T18:06:45;10.40;1.00
55036;DHT22;40936;53.008;6.556;2023-02-12T18:09:11;10.40;1.00
55036;DHT22;40936;53.008;6.556;2023-02-12T18:11:37;10.30;1.00
55036;DHT22;40936;53.008;6.556;2023-02-12T18:16:32;10.30;1.00
55036;DHT22;40936;53.008;6.556;2023-02-12T18:19:00;10.30;1.00
55036;DHT22;40936;53.008;6.556;2023-02-12T18:21:26;10.20;1.00
55036;DHT22;40936;53.008;6.556;2023-02-12T18:23:52;10.30;1.00
55036;DHT22;40936;53.008;6.556;2023-02-12T18:26:18;10.30;1.00
55036;DHT22;40936;53.008;6.556;2023-02-12T18:28:45;10.30;1.00
55036;DHT22;40936;53.008;6.556;2023-02-12T18:31:11;10.30;1.00
55036;DHT22;40936;53.008;6.556;2023-02-12T18:33:38;11.80;1.00
55036;DHT22;40936;53.008;6.556;2023-02-12T18:36:15;10.50;1.00
55036;DHT22;40936;53.008;6.556;2023-02-12T18:38:42;10.20;1.00
55036;DHT22;40936;53.008;6.556;2023-02-12T18:41:10;10.20;1.00
55036;DHT22;40936;53.008;6.556;2023-02-12T18:43:36;10.20;1.00
55036;DHT22;40936;53.008;6.556;2023-02-12T18:46:11;10.20;1.00
55036;DHT22;40936;53.008;6.556;2023-02-12T18:48:37;10.20;1.00
55036;DHT22;40936;53.008;6.556;2023-02-12T18:51:04;10.20;1.00
55036;DHT22;40936;53.008;6.556;2023-02-12T18:53:30;10.20;1.00
55036;DHT22;40936;53.008;6.556;2023-02-12T18:55:56;10.20;1.00
55036;DHT22;40936;53.008;6.556;2023-02-12T18:58:22;10.00;1.00
55036;DHT22;40936;53.008;6.556;2023-02-12T19:00:48;10.20;1.00
55036;DHT22;40936;53.008;6.556;2023-02-12T19:03:14;10.20;1.00
55036;DHT22;40936;53.008;6.556;2023-02-12T19:05:40;10.20;1.00
55036;DHT22;40936;53.008;6.556;2023-02-12T19:08:05;10.10;1.00
55036;DHT22;40936;53.008;6.556;2023-02-12T19:10:31;10.20;1.00
55036;DHT22;40936;53.008;6.556;2023-02-12T19:12:57;10.10;1.00
55036;DHT22;40936;53.008;6.556;2023-02-12T19:15:23;10.10;1.00
55036;DHT22;40936;53.008;6.556;2023-02-12T19:17:49;10.10;1.00
55036;DHT22;40936;53.008;6.556;2023-02-12T19:20:15;10.20;1.00
55036;DHT22;40936;53.008;6.556;2023-02-12T19:22:42;10.20;1.00
55036;DHT22;40936;53.008;6.556;2023-02-12T19:25:08;10.10;1.00
55036;DHT22;40936;53.008;6.556;2023-02-12T19:27:34;10.10;1.00
55036;DHT22;40936;53.008;6.556;2023-02-12T19:30:00;10.10;1.00
55036;DHT22;40936;53.008;6.556;2023-02-12T19:32:26;10.10;1.00
55036;DHT22;40936;53.008;6.556;2023-02-12T19:34:52;10.10;1.00
55036;DHT22;40936;53.008;6.556;2023-02-12T19:37:18;10.00;1.00
55036;DHT22;40936;53.008;6.556;2023-02-12T19:39:44;10.00;1.00
55036;DHT22;40936;53.008;6.556;2023-02-12T19:42:10;10.00;1.00
55036;DHT22;40936;53.008;6.556;2023-02-12T19:44:39;10.50;1.00
55036;DHT22;40936;53.008;6.556;2023-02-12T19:47:08;10.00;1.00
55036;DHT22;40936;53.008;6.556;2023-02-12T19:49:34;10.00;1.00
55036;DHT22;40936;53.008;6.556;2023-02-12T19:51:59;10.00;1.00
55036;DHT22;40936;53.008;6.556;2023-02-12T19:54:28;10.00;1.00
55036;DHT22;40936;53.008;6.556;2023-02-12T19:56:54;10.00;1.00
55036;DHT22;40936;53.008;6.556;2023-02-12T19:59:22;9.90;1.00
55036;DHT22;40936;53.008;6.556;2023-02-12T20:04:17;9.90;1.00
55036;DHT22;40936;53.008;6.556;2023-02-12T20:06:44;9.90;1.00
55036;DHT22;40936;53.008;6.556;2023-02-12T20:09:11;9.90;1.00
55036;DHT22;40936;53.008;6.556;2023-02-12T20:11:37;9.90;1.00
55036;DHT22;40936;53.008;6.556;2023-02-12T20:14:05;9.90;1.00